sensor_id;sensor_type;location;lat;lon;timestamp;pressure;altitude;pressure_sealevel;temperature;humidity
73341;BME280;61578;52.002;5.468;2023-05-23T00:00:00;101846.09;;;16.82;74.48
73341;BME280;61578;52.002;5.468;2023-05-23T00:00:31;101842.34;;;16.84;75.26
73341;BME280;61578;52.002;5.468;2023-05-23T00:01:03;101801.34;;;16.59;75.19
73341;BME280;61578;52.002;5.468;2023-05-23T00:01:36;101837.84;;;16.85;76.13
73341;BME280;61578;52.002;5.468;2023-05-23T00:02:11;101843.09;;;16.86;75.45
73341;BME280;61578;52.002;5.468;2023-05-23T00:02:43;101805.53;;;16.63;75.33
73341;BME280;61578;52.002;5.468;2023-05-23T00:03:13;101841.59;;;16.82;75.17
73341;BME280;61578;52.002;5.468;2023-05-23T00:03:45;101843.44;;;16.82;74.79
73341;BME280;61578;52.002;5.468;2023-05-23T00:04:16;101842.69;;;16.80;75.00
73341;BME280;61578;52.002;5.468;2023-05-23T00:04:47;101836.72;;;16.76;74.67
73341;BME280;61578;52.002;5.468;2023-05-23T00:05:18;101840.00;;;16.80;75.18
73341;BME280;61578;52.002;5.468;2023-05-23T00:05:49;101851.09;;;16.99;74.80
73341;BME280;61578;52.002;5.468;2023-05-23T00:06:20;101839.56;;;17.10;74.80
73341;BME280;61578;52.002;5.468;2023-05-23T00:06:51;101796.28;;;16.90;74.41
73341;BME280;61578;52.002;5.468;2023-05-23T00:07:23;101828.13;;;17.19;73.20
73341;BME280;61578;52.002;5.468;2023-05-23T00:07:54;101840.56;;;17.20;73.26
73341;BME280;61578;52.002;5.468;2023-05-23T00:08:25;101834.34;;;17.19;73.67
73341;BME280;61578;52.002;5.468;2023-05-23T00:08:56;101842.41;;;17.19;74.10
73341;BME280;61578;52.002;5.468;2023-05-23T00:09:26;101802.91;;;16.98;73.65
73341;BME280;61578;52.002;5.468;2023-05-23T00:09:57;101838.59;;;17.22;73.76
73341;BME280;61578;52.002;5.468;2023-05-23T00:10:28;101837.75;;;17.21;73.64
73341;BME280;61578;52.002;5.468;2023-05-23T00:10:59;101840.91;;;17.15;73.28
73341;BME280;61578;52.002;5.468;2023-05-23T00:11:29;101839.06;;;17.16;73.61
73341;BME280;61578;52.002;5.468;2023-05-23T00:12:01;101843.59;;;17.15;73.51
73341;BME280;61578;52.002;5.468;2023-05-23T00:12:32;101786.13;;;16.83;73.80
73341;BME280;61578;52.002;5.468;2023-05-23T00:13:06;101833.72;;;17.16;74.02
73341;BME280;61578;52.002;5.468;2023-05-23T00:13:41;101829.66;;;17.10;73.62
73341;BME280;61578;52.002;5.468;2023-05-23T00:14:14;101791.06;;;16.89;73.32
73341;BME280;61578;52.002;5.468;2023-05-23T00:14:45;101844.66;;;17.13;73.38
73341;BME280;61578;52.002;5.468;2023-05-23T00:15:15;101843.06;;;17.10;73.61
73341;BME280;61578;52.002;5.468;2023-05-23T00:15:46;101842.34;;;17.08;73.68
73341;BME280;61578;52.002;5.468;2023-05-23T00:16:18;101845.75;;;17.10;74.76
73341;BME280;61578;52.002;5.468;2023-05-23T00:16:49;101843.81;;;17.12;74.13
73341;BME280;61578;52.002;5.468;2023-05-23T00:17:20;101840.53;;;17.09;74.15
73341;BME280;61578;52.002;5.468;2023-05-23T00:17:54;101847.34;;;17.13;74.17
73341;BME280;61578;52.002;5.468;2023-05-23T00:18:25;101851.84;;;17.12;74.34
73341;BME280;61578;52.002;5.468;2023-05-23T00:18:56;101842.09;;;17.11;74.23
73341;BME280;61578;52.002;5.468;2023-05-23T00:19:28;101846.16;;;17.17;74.04
73341;BME280;61578;52.002;5.468;2023-05-23T00:19:59;101835.75;;;17.12;74.63
73341;BME280;61578;52.002;5.468;2023-05-23T00:20:29;101850.66;;;17.16;73.91
73341;BME280;61578;52.002;5.468;2023-05-23T00:21:00;101840.16;;;17.13;73.95
73341;BME280;61578;52.002;5.468;2023-05-23T00:21:31;101848.09;;;17.15;73.64
73341;BME280;61578;52.002;5.468;2023-05-23T00:22:02;101849.94;;;17.14;74.27
73341;BME280;61578;52.002;5.468;2023-05-23T00:22:34;101855.28;;;17.14;74.32
73341;BME280;61578;52.002;5.468;2023-05-23T00:23:10;101843.06;;;17.10;73.82
73341;BME280;61578;52.002;5.468;2023-05-23T00:23:49;101847.34;;;17.13;74.36
73341;BME280;61578;52.002;5.468;2023-05-23T00:24:19;101849.81;;;17.16;74.45
73341;BME280;61578;52.002;5.468;2023-05-23T00:24:51;101849.06;;;17.14;74.18
73341;BME280;61578;52.002;5.468;2023-05-23T00:25:21;101851.13;;;17.10;74.52
73341;BME280;61578;52.002;5.468;2023-05-23T00:25:52;101812.38;;;16.90;74.34
73341;BME280;61578;52.002;5.468;2023-05-23T00:26:23;101849.28;;;17.11;73.90
73341;BME280;61578;52.002;5.468;2023-05-23T00:26:54;101841.50;;;17.08;74.33
73341;BME280;61578;52.002;5.468;2023-05-23T00:27:24;101851.13;;;17.10;74.74
73341;BME280;61578;52.002;5.468;2023-05-23T00:27:55;101844.19;;;17.08;74.08
73341;BME280;61578;52.002;5.468;2023-05-23T00:28:26;101852.22;;;17.08;75.04
73341;BME280;61578;52.002;5.468;2023-05-23T00:28:57;101853.94;;;17.09;74.63
73341;BME280;61578;52.002;5.468;2023-05-23T00:29:28;101854.06;;;17.07;74.69
73341;BME280;61578;52.002;5.468;2023-05-23T00:29:59;101852.84;;;17.11;74.76
73341;BME280;61578;52.002;5.468;2023-05-23T00:30:30;101859.91;;;17.12;75.11
73341;BME280;61578;52.002;5.468;2023-05-23T00:31:02;101847.47;;;17.11;74.79
73341;BME280;61578;52.002;5.468;2023-05-23T00:31:33;101846.09;;;17.06;75.33
73341;BME280;61578;52.002;5.468;2023-05-23T00:32:04;101815.31;;;16.87;74.65
73341;BME280;61578;52.002;5.468;2023-05-23T00:32:34;101853.69;;;17.12;74.65
73341;BME280;61578;52.002;5.468;2023-05-23T00:33:05;101847.94;;;17.05;73.81
73341;BME280;61578;52.002;5.468;2023-05-23T00:33:36;101851.38;;;17.07;74.24
73341;BME280;61578;52.002;5.468;2023-05-23T00:34:06;101852.44;;;17.05;74.46
73341;BME280;61578;52.002;5.468;2023-05-23T00:34:37;101849.88;;;17.03;74.36
73341;BME280;61578;52.002;5.468;2023-05-23T00:35:08;101859.16;;;16.99;74.81
73341;BME280;61578;52.002;5.468;2023-05-23T00:35:40;101854.75;;;16.98;74.64
73341;BME280;61578;52.002;5.468;2023-05-23T00:36:11;101859.16;;;16.99;74.52
73341;BME280;61578;52.002;5.468;2023-05-23T00:36:43;101851.31;;;16.96;74.22
73341;BME280;61578;52.002;5.468;2023-05-23T00:37:16;101863.22;;;16.92;74.35
73341;BME280;61578;52.002;5.468;2023-05-23T00:37:47;101860.53;;;16.92;74.68
73341;BME280;61578;52.002;5.468;2023-05-23T00:38:19;101810.97;;;16.61;74.27
73341;BME280;61578;52.002;5.468;2023-05-23T00:38:50;101859.09;;;16.88;74.42
73341;BME280;61578;52.002;5.468;2023-05-23T00:39:22;101864.66;;;16.85;74.50
73341;BME280;61578;52.002;5.468;2023-05-23T00:39:53;101855.97;;;16.81;74.36
73341;BME280;61578;52.002;5.468;2023-05-23T00:40:23;101856.72;;;16.83;74.46
73341;BME280;61578;52.002;5.468;2023-05-23T00:40:54;101856.22;;;16.78;75.17
73341;BME280;61578;52.002;5.468;2023-05-23T00:41:25;101854.72;;;16.74;74.80
73341;BME280;61578;52.002;5.468;2023-05-23T00:41:56;101857.09;;;16.79;75.22
73341;BME280;61578;52.002;5.468;2023-05-23T00:42:27;101861.22;;;16.83;74.93
73341;BME280;61578;52.002;5.468;2023-05-23T00:42:57;101864.88;;;16.82;75.16
73341;BME280;61578;52.002;5.468;2023-05-23T00:43:28;101861.34;;;16.81;74.67
73341;BME280;61578;52.002;5.468;2023-05-23T00:43:59;101858.66;;;16.81;75.17
73341;BME280;61578;52.002;5.468;2023-05-23T00:44:29;101857.91;;;16.79;74.70
73341;BME280;61578;52.002;5.468;2023-05-23T00:45:00;101863.91;;;16.83;74.71
73341;BME280;61578;52.002;5.468;2023-05-23T00:45:31;101857.91;;;16.79;74.56
73341;BME280;61578;52.002;5.468;2023-05-23T00:46:01;101857.19;;;16.77;74.65
73341;BME280;61578;52.002;5.468;2023-05-23T00:46:33;101856.09;;;16.80;74.91
73341;BME280;61578;52.002;5.468;2023-05-23T00:47:06;101865.47;;;16.74;74.97
73341;BME280;61578;52.002;5.468;2023-05-23T00:47:39;101864.88;;;16.82;75.41
73341;BME280;61578;52.002;5.468;2023-05-23T00:48:10;101863.16;;;16.81;75.16
73341;BME280;61578;52.002;5.468;2023-05-23T00:48:42;101828.88;;;16.61;74.34
73341;BME280;61578;52.002;5.468;2023-05-23T00:49:13;101877.44;;;16.81;74.93
73341;BME280;61578;52.002;5.468;2023-05-23T00:49:44;101867.56;;;16.82;75.05
73341;BME280;61578;52.002;5.468;2023-05-23T00:50:15;101872.94;;;16.82;75.39
73341;BME280;61578;52.002;5.468;2023-05-23T00:50:46;101860.94;;;16.75;75.30
73341;BME280;61578;52.002;5.468;2023-05-23T00:51:17;101873.19;;;16.79;75.67
73341;BME280;61578;52.002;5.468;2023-05-23T00:51:49;101864.13;;;16.80;76.01
73341;BME280;61578;52.002;5.468;2023-05-23T00:52:21;101875.72;;;16.80;76.17
73341;BME280;61578;52.002;5.468;2023-05-23T00:52:52;101873.03;;;16.80;75.62
73341;BME280;61578;52.002;5.468;2023-05-23T00:53:23;101878.19;;;16.83;76.36
73341;BME280;61578;52.002;5.468;2023-05-23T00:53:55;101784.28;;;16.36;75.88
73341;BME280;61578;52.002;5.468;2023-05-23T00:54:28;101859.03;;;16.77;76.12
73341;BME280;61578;52.002;5.468;2023-05-23T00:55:03;101864.78;;;16.83;75.65
73341;BME280;61578;52.002;5.468;2023-05-23T00:55:35;101871.97;;;16.83;75.29
73341;BME280;61578;52.002;5.468;2023-05-23T00:56:06;101876.59;;;16.81;75.35
73341;BME280;61578;52.002;5.468;2023-05-23T00:56:37;101872.19;;;16.80;74.99
73341;BME280;61578;52.002;5.468;2023-05-23T00:57:08;101874.25;;;16.76;75.22
73341;BME280;61578;52.002;5.468;2023-05-23T00:57:40;101872.53;;;16.75;74.58
73341;BME280;61578;52.002;5.468;2023-05-23T00:58:13;101885.31;;;16.72;74.88
73341;BME280;61578;52.002;5.468;2023-05-23T00:58:45;101873.72;;;16.71;74.98
73341;BME280;61578;52.002;5.468;2023-05-23T00:59:16;101871.28;;;16.68;74.91
73341;BME280;61578;52.002;5.468;2023-05-23T00:59:47;101882.97;;;16.67;74.91
73341;BME280;61578;52.002;5.468;2023-05-23T01:00:18;101879.75;;;16.62;75.13
73341;BME280;61578;52.002;5.468;2023-05-23T01:00:49;101879.13;;;16.59;74.99
73341;BME280;61578;52.002;5.468;2023-05-23T01:01:23;101825.75;;;16.30;75.35
73341;BME280;61578;52.002;5.468;2023-05-23T01:01:56;101884.34;;;16.60;75.57
73341;BME280;61578;52.002;5.468;2023-05-23T01:02:31;101886.16;;;16.60;75.61
73341;BME280;61578;52.002;5.468;2023-05-23T01:03:05;101883.72;;;16.56;75.46
73341;BME280;61578;52.002;5.468;2023-05-23T01:03:36;101889.09;;;16.56;75.34
73341;BME280;61578;52.002;5.468;2023-05-23T01:04:07;101883.94;;;16.53;75.74
73341;BME280;61578;52.002;5.468;2023-05-23T01:04:38;101846.81;;;16.24;76.04
73341;BME280;61578;52.002;5.468;2023-05-23T01:05:14;101887.78;;;16.49;75.33
73341;BME280;61578;52.002;5.468;2023-05-23T01:05:46;101890.63;;;16.48;75.76
73341;BME280;61578;52.002;5.468;2023-05-23T01:06:18;101885.34;;;16.46;75.82
73341;BME280;61578;52.002;5.468;2023-05-23T01:06:49;101887.28;;;16.44;76.26
73341;BME280;61578;52.002;5.468;2023-05-23T01:07:23;101837.72;;;16.13;76.12
73341;BME280;61578;52.002;5.468;2023-05-23T01:07:53;101878.59;;;16.41;76.56
73341;BME280;61578;52.002;5.468;2023-05-23T01:08:24;101886.13;;;16.36;75.99
73341;BME280;61578;52.002;5.468;2023-05-23T01:08:58;101879.56;;;16.40;76.50
73341;BME280;61578;52.002;5.468;2023-05-23T01:09:32;101841.03;;;16.17;76.40
73341;BME280;61578;52.002;5.468;2023-05-23T01:10:03;101872.63;;;16.37;76.29
73341;BME280;61578;52.002;5.468;2023-05-23T01:10:35;101885.06;;;16.38;76.49
73341;BME280;61578;52.002;5.468;2023-05-23T01:11:20;101852.72;;;16.16;76.81
73341;BME280;61578;52.002;5.468;2023-05-23T01:12:28;101884.50;;;16.33;76.06
73341;BME280;61578;52.002;5.468;2023-05-23T01:13:42;101856.97;;;16.18;76.47
73341;BME280;61578;52.002;5.468;2023-05-23T01:14:32;101880.47;;;16.28;76.64
73341;BME280;61578;52.002;5.468;2023-05-23T01:15:16;101891.28;;;16.26;76.21
73341;BME280;61578;52.002;5.468;2023-05-23T01:16:06;101884.22;;;16.25;76.39
73341;BME280;61578;52.002;5.468;2023-05-23T01:16:46;101880.56;;;16.26;76.68
73341;BME280;61578;52.002;5.468;2023-05-23T01:17:30;101882.50;;;16.24;77.09
73341;BME280;61578;52.002;5.468;2023-05-23T01:18:55;101878.19;;;16.22;76.91
73341;BME280;61578;52.002;5.468;2023-05-23T01:19:50;101889.78;;;16.22;76.69
73341;BME280;61578;52.002;5.468;2023-05-23T01:20:46;101885.28;;;16.23;77.26
73341;BME280;61578;52.002;5.468;2023-05-23T01:21:23;101880.78;;;16.23;77.31
73341;BME280;61578;52.002;5.468;2023-05-23T01:22:02;101875.00;;;16.16;76.71
73341;BME280;61578;52.002;5.468;2023-05-23T01:23:58;101874.25;;;16.14;77.87
73341;BME280;61578;52.002;5.468;2023-05-23T01:24:50;101883.16;;;16.15;78.34
73341;BME280;61578;52.002;5.468;2023-05-23T01:27:54;101876.94;;;16.14;77.83
73341;BME280;61578;52.002;5.468;2023-05-23T01:28:35;101832.25;;;15.90;78.32
73341;BME280;61578;52.002;5.468;2023-05-23T01:29:25;101880.47;;;16.15;77.36
73341;BME280;61578;52.002;5.468;2023-05-23T01:30:03;101877.78;;;16.15;77.31
73341;BME280;61578;52.002;5.468;2023-05-23T01:30:41;101880.56;;;16.13;77.78
73341;BME280;61578;52.002;5.468;2023-05-23T01:31:16;101877.03;;;16.13;77.51
73341;BME280;61578;52.002;5.468;2023-05-23T01:31:52;101873.28;;;16.15;78.16
73341;BME280;61578;52.002;5.468;2023-05-23T01:32:27;101876.72;;;16.17;78.01
73341;BME280;61578;52.002;5.468;2023-05-23T01:32:58;101882.94;;;16.18;77.70
73341;BME280;61578;52.002;5.468;2023-05-23T01:33:31;101846.09;;;15.96;77.82
73341;BME280;61578;52.002;5.468;2023-05-23T01:34:04;101855.50;;;16.02;77.66
73341;BME280;61578;52.002;5.468;2023-05-23T01:34:38;101875.97;;;16.15;77.06
73341;BME280;61578;52.002;5.468;2023-05-23T01:35:11;101873.41;;;16.14;77.19
73341;BME280;61578;52.002;5.468;2023-05-23T01:35:42;101880.56;;;16.13;77.26
73341;BME280;61578;52.002;5.468;2023-05-23T01:36:14;101887.66;;;16.14;77.65
73341;BME280;61578;52.002;5.468;2023-05-23T01:36:49;101884.00;;;16.15;77.57
73341;BME280;61578;52.002;5.468;2023-05-23T01:37:26;101869.97;;;16.12;77.31
73341;BME280;61578;52.002;5.468;2023-05-23T01:37:59;101832.50;;;15.87;77.04
73341;BME280;61578;52.002;5.468;2023-05-23T01:38:29;101873.41;;;16.14;77.03
73341;BME280;61578;52.002;5.468;2023-05-23T01:39:00;101875.13;;;16.15;76.69
73341;BME280;61578;52.002;5.468;2023-05-23T01:39:31;101886.69;;;16.15;77.39
73341;BME280;61578;52.002;5.468;2023-05-23T01:40:02;101882.94;;;16.18;77.25
73341;BME280;61578;52.002;5.468;2023-05-23T01:40:33;101879.72;;;16.13;76.91
73341;BME280;61578;52.002;5.468;2023-05-23T01:41:05;101883.91;;;16.17;77.47
73341;BME280;61578;52.002;5.468;2023-05-23T01:41:36;101875.88;;;16.17;77.41
73341;BME280;61578;52.002;5.468;2023-05-23T01:42:07;101886.34;;;16.20;77.33
73341;BME280;61578;52.002;5.468;2023-05-23T01:42:39;101865.34;;;16.14;77.59
73341;BME280;61578;52.002;5.468;2023-05-23T01:43:10;101860.84;;;16.14;77.13
73341;BME280;61578;52.002;5.468;2023-05-23T01:43:41;101875.63;;;16.20;77.28
73341;BME280;61578;52.002;5.468;2023-05-23T01:44:12;101881.63;;;16.24;77.84
73341;BME280;61578;52.002;5.468;2023-05-23T01:44:44;101871.22;;;16.19;76.99
73341;BME280;61578;52.002;5.468;2023-05-23T01:45:16;101876.28;;;16.24;76.67
73341;BME280;61578;52.002;5.468;2023-05-23T01:45:48;101877.03;;;16.26;76.80
73341;BME280;61578;52.002;5.468;2023-05-23T01:46:22;101870.06;;;16.23;76.66
73341;BME280;61578;52.002;5.468;2023-05-23T01:46:54;101883.25;;;16.26;77.47
73341;BME280;61578;52.002;5.468;2023-05-23T01:47:25;101877.78;;;16.28;77.35
73341;BME280;61578;52.002;5.468;2023-05-23T01:47:57;101870.81;;;16.25;77.66
73341;BME280;61578;52.002;5.468;2023-05-23T01:48:31;101875.72;;;16.31;77.38
73341;BME280;61578;52.002;5.468;2023-05-23T01:49:03;101877.44;;;16.32;77.17
73341;BME280;61578;52.002;5.468;2023-05-23T01:49:37;101878.41;;;16.31;77.30
73341;BME280;61578;52.002;5.468;2023-05-23T01:50:11;101887.09;;;16.35;76.69
73341;BME280;61578;52.002;5.468;2023-05-23T01:50:43;101834.72;;;16.05;76.64
73341;BME280;61578;52.002;5.468;2023-05-23T01:51:16;101882.91;;;16.31;77.17
73341;BME280;61578;52.002;5.468;2023-05-23T01:51:49;101883.66;;;16.33;77.13
73341;BME280;61578;52.002;5.468;2023-05-23T01:52:21;101837.63;;;16.02;76.90
73341;BME280;61578;52.002;5.468;2023-05-23T01:52:54;101880.31;;;16.29;76.46
73341;BME280;61578;52.002;5.468;2023-05-23T01:53:26;101875.81;;;16.30;76.16
73341;BME280;61578;52.002;5.468;2023-05-23T01:53:59;101882.50;;;16.24;76.53
73341;BME280;61578;52.002;5.468;2023-05-23T01:54:31;101885.19;;;16.24;76.51
73341;BME280;61578;52.002;5.468;2023-05-23T01:55:05;101872.44;;;16.28;76.96
73341;BME280;61578;52.002;5.468;2023-05-23T01:55:41;101867.47;;;16.22;76.51
73341;BME280;61578;52.002;5.468;2023-05-23T01:56:13;101876.16;;;16.25;77.22
73341;BME280;61578;52.002;5.468;2023-05-23T01:56:43;101866.22;;;16.27;77.22
73341;BME280;61578;52.002;5.468;2023-05-23T01:57:15;101872.63;;;16.25;76.74
73341;BME280;61578;52.002;5.468;2023-05-23T01:57:49;101878.00;;;16.25;76.66
73341;BME280;61578;52.002;5.468;2023-05-23T01:58:21;101882.50;;;16.24;76.93
73341;BME280;61578;52.002;5.468;2023-05-23T01:58:52;101876.94;;;16.27;76.93
73341;BME280;61578;52.002;5.468;2023-05-23T01:59:23;101888.50;;;16.28;76.64
73341;BME280;61578;52.002;5.468;2023-05-23T01:59:55;101879.06;;;16.22;76.72
73341;BME280;61578;52.002;5.468;2023-05-23T02:00:26;101884.09;;;16.27;76.73
73341;BME280;61578;52.002;5.468;2023-05-23T02:00:57;101891.19;;;16.28;77.08
73341;BME280;61578;52.002;5.468;2023-05-23T02:01:29;101883.25;;;16.26;77.29
73341;BME280;61578;52.002;5.468;2023-05-23T02:02:00;101882.03;;;16.30;77.49
73341;BME280;61578;52.002;5.468;2023-05-23T02:02:34;101891.69;;;16.33;77.31
73341;BME280;61578;52.002;5.468;2023-05-23T02:03:08;101881.06;;;16.31;76.56
73341;BME280;61578;52.002;5.468;2023-05-23T02:03:38;101883.88;;;16.30;76.95
73341;BME280;61578;52.002;5.468;2023-05-23T02:04:09;101886.53;;;16.30;77.23
73341;BME280;61578;52.002;5.468;2023-05-23T02:04:40;101893.50;;;16.32;77.40
73341;BME280;61578;52.002;5.468;2023-05-23T02:05:11;101900.59;;;16.33;77.38
73341;BME280;61578;52.002;5.468;2023-05-23T02:05:41;101884.72;;;16.30;77.13
73341;BME280;61578;52.002;5.468;2023-05-23T02:06:12;101894.47;;;16.31;76.66
73341;BME280;61578;52.002;5.468;2023-05-23T02:06:42;101890.09;;;16.30;76.38
73341;BME280;61578;52.002;5.468;2023-05-23T02:07:13;101886.53;;;16.30;76.73
73341;BME280;61578;52.002;5.468;2023-05-23T02:07:44;101895.34;;;16.32;77.29
73341;BME280;61578;52.002;5.468;2023-05-23T02:08:15;101883.25;;;16.26;76.62
73341;BME280;61578;52.002;5.468;2023-05-23T02:08:45;101894.59;;;16.30;76.45
73341;BME280;61578;52.002;5.468;2023-05-23T02:09:16;101890.19;;;16.29;76.27
73341;BME280;61578;52.002;5.468;2023-05-23T02:09:47;101874.03;;;16.17;76.85
73341;BME280;61578;52.002;5.468;2023-05-23T02:10:18;101896.53;;;16.28;76.96
73341;BME280;61578;52.002;5.468;2023-05-23T02:10:50;101891.19;;;16.28;76.80
73341;BME280;61578;52.002;5.468;2023-05-23T02:11:20;101887.75;;;16.26;76.74
73341;BME280;61578;52.002;5.468;2023-05-23T02:11:51;101894.47;;;16.31;76.73
73341;BME280;61578;52.002;5.468;2023-05-23T02:12:22;101887.50;;;16.29;76.60
73341;BME280;61578;52.002;5.468;2023-05-23T02:12:53;101894.28;;;16.34;76.72
73341;BME280;61578;52.002;5.468;2023-05-23T02:13:24;101897.81;;;16.35;77.22
73341;BME280;61578;52.002;5.468;2023-05-23T02:13:54;101896.00;;;16.35;76.78
73341;BME280;61578;52.002;5.468;2023-05-23T02:14:25;101898.66;;;16.35;76.46
73341;BME280;61578;52.002;5.468;2023-05-23T02:14:57;101882.28;;;16.27;76.74
73341;BME280;61578;52.002;5.468;2023-05-23T02:15:30;101899.75;;;16.33;76.73
73341;BME280;61578;52.002;5.468;2023-05-23T02:16:01;101897.16;;;16.31;76.55
73341;BME280;61578;52.002;5.468;2023-05-23T02:16:33;101899.94;;;16.30;76.91
73341;BME280;61578;52.002;5.468;2023-05-23T02:17:05;101887.00;;;16.24;76.31
73341;BME280;61578;52.002;5.468;2023-05-23T02:17:36;101901.78;;;16.29;76.69
73341;BME280;61578;52.002;5.468;2023-05-23T02:18:10;101901.16;;;16.26;76.78
73341;BME280;61578;52.002;5.468;2023-05-23T02:18:41;101869.22;;;16.10;76.19
73341;BME280;61578;52.002;5.468;2023-05-23T02:19:11;101896.66;;;16.26;77.08
73341;BME280;61578;52.002;5.468;2023-05-23T02:19:42;101906.50;;;16.26;76.84
73341;BME280;61578;52.002;5.468;2023-05-23T02:20:13;101905.44;;;16.28;76.95
73341;BME280;61578;52.002;5.468;2023-05-23T02:20:44;101891.50;;;16.23;76.78
73341;BME280;61578;52.002;5.468;2023-05-23T02:21:14;101900.09;;;16.28;76.69
73341;BME280;61578;52.002;5.468;2023-05-23T02:21:45;101902.88;;;16.27;76.55
73341;BME280;61578;52.002;5.468;2023-05-23T02:22:16;101887.84;;;16.24;76.81
73341;BME280;61578;52.002;5.468;2023-05-23T02:22:46;101894.06;;;16.25;76.29
73341;BME280;61578;52.002;5.468;2023-05-23T02:23:17;101893.72;;;16.29;76.70
73341;BME280;61578;52.002;5.468;2023-05-23T02:23:47;101900.91;;;16.29;76.37
73341;BME280;61578;52.002;5.468;2023-05-23T02:24:18;101898.22;;;16.29;76.08
73341;BME280;61578;52.002;5.468;2023-05-23T02:24:49;101900.91;;;16.29;76.41
73341;BME280;61578;52.002;5.468;2023-05-23T02:25:20;101901.91;;;16.28;76.22
73341;BME280;61578;52.002;5.468;2023-05-23T02:25:50;101901.91;;;16.28;76.19
73341;BME280;61578;52.002;5.468;2023-05-23T02:26:21;101902.00;;;16.26;75.66
73341;BME280;61578;52.002;5.468;2023-05-23T02:26:55;101903.72;;;16.27;76.19
73341;BME280;61578;52.002;5.468;2023-05-23T02:27:26;101860.88;;;16.02;76.24
73341;BME280;61578;52.002;5.468;2023-05-23T02:27:57;101901.34;;;16.23;76.18
73341;BME280;61578;52.002;5.468;2023-05-23T02:28:27;101907.38;;;16.26;75.90
73341;BME280;61578;52.002;5.468;2023-05-23T02:28:58;101863.53;;;16.02;76.44
73341;BME280;61578;52.002;5.468;2023-05-23T02:29:28;101866.78;;;16.07;76.33
73341;BME280;61578;52.002;5.468;2023-05-23T02:29:59;101902.13;;;16.25;76.76
73341;BME280;61578;52.002;5.468;2023-05-23T02:30:30;101902.53;;;16.31;76.37
73341;BME280;61578;52.002;5.468;2023-05-23T02:31:01;101905.19;;;16.31;76.47
73341;BME280;61578;52.002;5.468;2023-05-23T02:31:31;101907.38;;;16.26;76.45
73341;BME280;61578;52.002;5.468;2023-05-23T02:32:02;101913.25;;;16.31;76.17
73341;BME280;61578;52.002;5.468;2023-05-23T02:32:33;101909.81;;;16.29;75.44
73341;BME280;61578;52.002;5.468;2023-05-23T02:33:06;101908.94;;;16.29;75.66
73341;BME280;61578;52.002;5.468;2023-05-23T02:33:37;101858.94;;;16.04;76.11
73341;BME280;61578;52.002;5.468;2023-05-23T02:34:08;101902.22;;;16.23;75.90
73341;BME280;61578;52.002;5.468;2023-05-23T02:34:39;101904.44;;;16.29;75.52
73341;BME280;61578;52.002;5.468;2023-05-23T02:35:10;101871.88;;;16.10;75.81
73341;BME280;61578;52.002;5.468;2023-05-23T02:35:41;101902.63;;;16.30;75.67
73341;BME280;61578;52.002;5.468;2023-05-23T02:36:12;101897.63;;;16.25;75.92
73341;BME280;61578;52.002;5.468;2023-05-23T02:36:43;101868.59;;;16.06;75.57
73341;BME280;61578;52.002;5.468;2023-05-23T02:37:13;101907.88;;;16.31;75.26
73341;BME280;61578;52.002;5.468;2023-05-23T02:37:44;101909.81;;;16.29;75.34
73341;BME280;61578;52.002;5.468;2023-05-23T02:38:15;101910.56;;;16.31;75.68
73341;BME280;61578;52.002;5.468;2023-05-23T02:38:47;101912.72;;;16.26;75.13
73341;BME280;61578;52.002;5.468;2023-05-23T02:39:18;101911.75;;;16.27;75.21
73341;BME280;61578;52.002;5.468;2023-05-23T02:39:48;101909.28;;;16.24;75.27
73341;BME280;61578;52.002;5.468;2023-05-23T02:40:19;101912.84;;;16.25;75.71
73341;BME280;61578;52.002;5.468;2023-05-23T02:40:49;101906.06;;;16.19;75.74
73341;BME280;61578;52.002;5.468;2023-05-23T02:41:24;101912.94;;;16.23;76.03
73341;BME280;61578;52.002;5.468;2023-05-23T02:41:54;101918.41;;;16.22;75.56
73341;BME280;61578;52.002;5.468;2023-05-23T02:42:25;101863.13;;;15.95;75.80
73341;BME280;61578;52.002;5.468;2023-05-23T02:42:56;101914.66;;;16.24;75.20
73341;BME280;61578;52.002;5.468;2023-05-23T02:43:26;101912.72;;;16.26;75.93
73341;BME280;61578;52.002;5.468;2023-05-23T02:43:58;101913.78;;;16.24;75.54
73341;BME280;61578;52.002;5.468;2023-05-23T02:44:29;101914.66;;;16.24;75.46
73341;BME280;61578;52.002;5.468;2023-05-23T02:44:59;101913.78;;;16.24;76.45
73341;BME280;61578;52.002;5.468;2023-05-23T02:45:30;101865.81;;;15.95;75.70
73341;BME280;61578;52.002;5.468;2023-05-23T02:46:01;101920.78;;;16.26;76.32
73341;BME280;61578;52.002;5.468;2023-05-23T02:46:32;101924.41;;;16.25;75.76
73341;BME280;61578;52.002;5.468;2023-05-23T02:47:02;101892.69;;;16.06;75.50
73341;BME280;61578;52.002;5.468;2023-05-23T02:47:33;101910.34;;;16.22;75.55
73341;BME280;61578;52.002;5.468;2023-05-23T02:48:04;101925.38;;;16.24;75.69
73341;BME280;61578;52.002;5.468;2023-05-23T02:48:34;101919.16;;;16.24;75.80
73341;BME280;61578;52.002;5.468;2023-05-23T02:49:05;101918.28;;;16.23;76.27
73341;BME280;61578;52.002;5.468;2023-05-23T02:49:36;101928.91;;;16.25;75.89
73341;BME280;61578;52.002;5.468;2023-05-23T02:50:06;101915.63;;;16.23;75.55
73341;BME280;61578;52.002;5.468;2023-05-23T02:50:37;101912.84;;;16.25;75.52
73341;BME280;61578;52.002;5.468;2023-05-23T02:51:08;101923.44;;;16.26;75.94
73341;BME280;61578;52.002;5.468;2023-05-23T02:51:39;101917.22;;;16.26;76.37
73341;BME280;61578;52.002;5.468;2023-05-23T02:52:09;101917.34;;;16.24;76.01
73341;BME280;61578;52.002;5.468;2023-05-23T02:52:40;101874.16;;;16.03;76.33
73341;BME280;61578;52.002;5.468;2023-05-23T02:53:11;101866.22;;;16.02;75.64
73341;BME280;61578;52.002;5.468;2023-05-23T02:53:42;101930.38;;;16.29;76.12
73341;BME280;61578;52.002;5.468;2023-05-23T02:54:12;101910.91;;;16.27;75.74